sensor_id;sensor_type;location;lat;lon;timestamp;pressure;altitude;pressure_sealevel;temperature;humidity
76128;BME280;64873;50.102;14.434;2023-07-13T00:02:06;98931.97;;;22.96;60.69
76128;BME280;64873;50.102;14.434;2023-07-13T00:04:32;98931.16;;;22.81;61.18
76128;BME280;64873;50.102;14.434;2023-07-13T00:06:57;98927.31;;;22.69;61.17
76128;BME280;64873;50.102;14.434;2023-07-13T00:09:23;98930.34;;;22.67;61.08
76128;BME280;64873;50.102;14.434;2023-07-13T00:11:54;98931.56;;;22.61;61.31
76128;BME280;64873;50.102;14.434;2023-07-13T00:14:19;98941.97;;;22.45;61.63
76128;BME280;64873;50.102;14.434;2023-07-13T00:16:45;98928.75;;;22.39;61.40
76128;BME280;64873;50.102;14.434;2023-07-13T00:19:12;98939.16;;;22.50;61.15
76128;BME280;64873;50.102;14.434;2023-07-13T00:21:38;98939.34;;;22.68;59.88
76128;BME280;64873;50.102;14.434;2023-07-13T00:24:05;98939.75;;;22.88;59.18
76128;BME280;64873;50.102;14.434;2023-07-13T00:26:31;98942.34;;;22.80;58.80
76128;BME280;64873;50.102;14.434;2023-07-13T00:28:58;98933.56;;;22.83;58.92
76128;BME280;64873;50.102;14.434;2023-07-13T00:31:23;98929.44;;;22.99;58.00
76128;BME280;64873;50.102;14.434;2023-07-13T00:33:49;98931.22;;;23.04;58.01
76128;BME280;64873;50.102;14.434;2023-07-13T00:36:14;98924.59;;;22.96;57.65
76128;BME280;64873;50.102;14.434;2023-07-13T00:38:40;98917.31;;;22.92;58.09
76128;BME280;64873;50.102;14.434;2023-07-13T00:41:05;98917.31;;;23.05;57.82
76128;BME280;64873;50.102;14.434;2023-07-13T00:43:31;98910.78;;;23.15;57.19
76128;BME280;64873;50.102;14.434;2023-07-13T00:46:17;98903.56;;;23.10;57.40
76128;BME280;64873;50.102;14.434;2023-07-13T00:48:43;98905.78;;;23.08;56.78
76128;BME280;64873;50.102;14.434;2023-07-13T00:51:10;98894.28;;;22.98;56.88
76128;BME280;64873;50.102;14.434;2023-07-13T00:53:36;98889.78;;;22.93;56.56
76128;BME280;64873;50.102;14.434;2023-07-13T00:56:02;98877.69;;;22.72;57.33
76128;BME280;64873;50.102;14.434;2023-07-13T00:58:28;98886.06;;;22.75;57.51
76128;BME280;64873;50.102;14.434;2023-07-13T01:00:54;98876.16;;;22.93;56.91
76128;BME280;64873;50.102;14.434;2023-07-13T01:03:20;98884.47;;;23.10;56.58
76128;BME280;64873;50.102;14.434;2023-07-13T01:05:48;98892.88;;;23.00;57.67
76128;BME280;64873;50.102;14.434;2023-07-13T01:08:15;98897.16;;;22.93;58.49
76128;BME280;64873;50.102;14.434;2023-07-13T01:10:41;98889.63;;;23.12;58.46
76128;BME280;64873;50.102;14.434;2023-07-13T01:13:15;98888.44;;;23.04;59.40
76128;BME280;64873;50.102;14.434;2023-07-13T01:15:46;98885.56;;;23.09;59.65
76128;BME280;64873;50.102;14.434;2023-07-13T01:18:15;98889.50;;;23.17;59.45
76128;BME280;64873;50.102;14.434;2023-07-13T01:20:54;98880.69;;;23.20;59.81
76128;BME280;64873;50.102;14.434;2023-07-13T01:23:21;98874.31;;;23.25;58.13
76128;BME280;64873;50.102;14.434;2023-07-13T01:25:46;98873.63;;;23.19;57.68
76128;BME280;64873;50.102;14.434;2023-07-13T01:28:12;98872.47;;;23.11;57.94
76128;BME280;64873;50.102;14.434;2023-07-13T01:30:39;98875.91;;;23.03;58.07
76128;BME280;64873;50.102;14.434;2023-07-13T01:33:06;98880.88;;;23.01;58.63
76128;BME280;64873;50.102;14.434;2023-07-13T01:35:33;98879.97;;;22.92;58.49
76128;BME280;64873;50.102;14.434;2023-07-13T01:37:58;98873.13;;;22.81;58.34
76128;BME280;64873;50.102;14.434;2023-07-13T01:40:25;98870.75;;;22.66;59.22
76128;BME280;64873;50.102;14.434;2023-07-13T01:42:51;98872.06;;;22.54;59.76
76128;BME280;64873;50.102;14.434;2023-07-13T01:45:16;98875.69;;;22.64;59.58
76128;BME280;64873;50.102;14.434;2023-07-13T01:47:42;98876.47;;;22.78;59.30
76128;BME280;64873;50.102;14.434;2023-07-13T01:50:07;98881.31;;;22.67;59.31
76128;BME280;64873;50.102;14.434;2023-07-13T01:52:33;98879.41;;;22.68;59.17
76128;BME280;64873;50.102;14.434;2023-07-13T01:54:58;98882.03;;;22.73;59.55
76128;BME280;64873;50.102;14.434;2023-07-13T01:57:24;98881.44;;;22.76;60.62
76128;BME280;64873;50.102;14.434;2023-07-13T01:59:49;98887.47;;;22.73;60.39
76128;BME280;64873;50.102;14.434;2023-07-13T02:02:15;98873.19;;;22.53;61.12
76128;BME280;64873;50.102;14.434;2023-07-13T02:04:40;98876.13;;;22.43;62.04
76128;BME280;64873;50.102;14.434;2023-07-13T02:07:05;98875.34;;;22.29;62.53
76128;BME280;64873;50.102;14.434;2023-07-13T02:09:31;98875.81;;;22.58;61.77
76128;BME280;64873;50.102;14.434;2023-07-13T02:11:56;98878.59;;;22.67;61.65
76128;BME280;64873;50.102;14.434;2023-07-13T02:14:22;98876.19;;;22.66;62.06
76128;BME280;64873;50.102;14.434;2023-07-13T02:16:47;98871.97;;;22.59;62.02
76128;BME280;64873;50.102;14.434;2023-07-13T02:19:13;98877.53;;;22.54;61.95
76128;BME280;64873;50.102;14.434;2023-07-13T02:21:39;98877.22;;;22.56;62.68
76128;BME280;64873;50.102;14.434;2023-07-13T02:24:05;98880.25;;;22.54;62.75
76128;BME280;64873;50.102;14.434;2023-07-13T02:26:30;98889.53;;;22.53;62.90
76128;BME280;64873;50.102;14.434;2023-07-13T02:28:56;98896.69;;;22.49;63.57
76128;BME280;64873;50.102;14.434;2023-07-13T02:31:21;98909.31;;;22.31;64.24
76128;BME280;64873;50.102;14.434;2023-07-13T02:33:46;98905.63;;;22.08;65.67
76128;BME280;64873;50.102;14.434;2023-07-13T02:36:12;98911.94;;;22.23;65.04
76128;BME280;64873;50.102;14.434;2023-07-13T02:38:39;98907.28;;;22.09;65.72
76128;BME280;64873;50.102;14.434;2023-07-13T02:41:06;98910.81;;;22.10;66.15
76128;BME280;64873;50.102;14.434;2023-07-13T02:43:31;98915.25;;;22.20;65.89
76128;BME280;64873;50.102;14.434;2023-07-13T02:45:59;98921.00;;;22.32;65.76
76128;BME280;64873;50.102;14.434;2023-07-13T02:48:29;98932.00;;;22.27;66.54
76128;BME280;64873;50.102;14.434;2023-07-13T02:50:55;98927.97;;;22.11;67.12
76128;BME280;64873;50.102;14.434;2023-07-13T02:53:20;98929.06;;;22.09;67.03
76128;BME280;64873;50.102;14.434;2023-07-13T02:55:46;98930.28;;;22.17;67.09
76128;BME280;64873;50.102;14.434;2023-07-13T02:58:13;98931.25;;;22.07;67.92
76128;BME280;64873;50.102;14.434;2023-07-13T03:00:42;98937.66;;;21.98;68.26
76128;BME280;64873;50.102;14.434;2023-07-13T03:03:08;98930.00;;;21.86;68.74
76128;BME280;64873;50.102;14.434;2023-07-13T03:05:33;98928.00;;;21.92;68.78
76128;BME280;64873;50.102;14.434;2023-07-13T03:07:58;98935.88;;;21.93;68.49
76128;BME280;64873;50.102;14.434;2023-07-13T03:10:24;98936.97;;;21.92;68.09
76128;BME280;64873;50.102;14.434;2023-07-13T03:12:50;98927.09;;;21.82;67.87
76128;BME280;64873;50.102;14.434;2023-07-13T03:15:16;98930.78;;;21.87;66.92
76128;BME280;64873;50.102;14.434;2023-07-13T03:17:41;98941.91;;;21.90;66.81
76128;BME280;64873;50.102;14.434;2023-07-13T03:20:07;98940.47;;;21.79;66.35
76128;BME280;64873;50.102;14.434;2023-07-13T03:22:33;98942.38;;;21.78;65.46
76128;BME280;64873;50.102;14.434;2023-07-13T03:24:58;98954.44;;;21.72;66.31
76128;BME280;64873;50.102;14.434;2023-07-13T03:27:23;98957.41;;;21.76;66.66
76128;BME280;64873;50.102;14.434;2023-07-13T03:29:49;98962.38;;;21.69;66.88
76128;BME280;64873;50.102;14.434;2023-07-13T03:32:14;98974.38;;;21.68;66.19
76128;BME280;64873;50.102;14.434;2023-07-13T03:34:40;98972.53;;;21.63;66.08
76128;BME280;64873;50.102;14.434;2023-07-13T03:37:05;98985.72;;;21.56;64.26
76128;BME280;64873;50.102;14.434;2023-07-13T03:39:31;98994.25;;;21.49;64.18
76128;BME280;64873;50.102;14.434;2023-07-13T03:41:56;98993.31;;;21.40;61.56
76128;BME280;64873;50.102;14.434;2023-07-13T03:44:21;98991.94;;;21.19;61.56
76128;BME280;64873;50.102;14.434;2023-07-13T03:46:47;99002.44;;;21.07;60.87
76128;BME280;64873;50.102;14.434;2023-07-13T03:49:12;98996.41;;;21.10;60.97
76128;BME280;64873;50.102;14.434;2023-07-13T03:51:38;99007.94;;;21.01;59.98
76128;BME280;64873;50.102;14.434;2023-07-13T03:54:03;99002.88;;;20.95;59.40
76128;BME280;64873;50.102;14.434;2023-07-13T03:56:30;98998.25;;;20.95;58.58
76128;BME280;64873;50.102;14.434;2023-07-13T03:58:56;99001.25;;;20.94;58.17
76128;BME280;64873;50.102;14.434;2023-07-13T04:01:23;99006.69;;;20.94;57.61
76128;BME280;64873;50.102;14.434;2023-07-13T04:03:50;99011.31;;;20.93;57.60
76128;BME280;64873;50.102;14.434;2023-07-13T04:06:18;99018.47;;;20.84;57.19
76128;BME280;64873;50.102;14.434;2023-07-13T04:08:49;99024.28;;;20.77;57.63
76128;BME280;64873;50.102;14.434;2023-07-13T04:11:15;99017.97;;;20.82;57.31
76128;BME280;64873;50.102;14.434;2023-07-13T04:13:41;99027.03;;;20.72;57.07
76128;BME280;64873;50.102;14.434;2023-07-13T04:16:06;99016.28;;;20.86;57.12
76128;BME280;64873;50.102;14.434;2023-07-13T04:18:32;99025.06;;;20.78;57.07
76128;BME280;64873;50.102;14.434;2023-07-13T04:20:57;99023.97;;;20.79;57.41
76128;BME280;64873;50.102;14.434;2023-07-13T04:23:24;99029.72;;;20.77;57.05
76128;BME280;64873;50.102;14.434;2023-07-13T04:25:52;99026.69;;;20.79;57.01
76128;BME280;64873;50.102;14.434;2023-07-13T04:28:19;99028.66;;;20.73;57.06
76128;BME280;64873;50.102;14.434;2023-07-13T04:30:45;99044.38;;;20.76;57.70
76128;BME280;64873;50.102;14.434;2023-07-13T04:33:10;99045.59;;;20.89;56.91
76128;BME280;64873;50.102;14.434;2023-07-13T04:35:36;99034.31;;;20.77;56.86
76128;BME280;64873;50.102;14.434;2023-07-13T04:38:02;99046.28;;;20.76;56.53
76128;BME280;64873;50.102;14.434;2023-07-13T04:40:29;99037.91;;;20.72;56.47
76128;BME280;64873;50.102;14.434;2023-07-13T04:42:54;99046.44;;;20.61;56.85
76128;BME280;64873;50.102;14.434;2023-07-13T04:45:20;99056.56;;;20.55;56.68
76128;BME280;64873;50.102;14.434;2023-07-13T04:47:45;99053.03;;;20.55;56.54
76128;BME280;64873;50.102;14.434;2023-07-13T04:50:13;99050.69;;;20.43;56.51
76128;BME280;64873;50.102;14.434;2023-07-13T04:52:41;99057.56;;;20.35;57.68
76128;BME280;64873;50.102;14.434;2023-07-13T04:55:08;99063.56;;;20.27;57.64
76128;BME280;64873;50.102;14.434;2023-07-13T04:57:33;99059.66;;;20.09;58.63
76128;BME280;64873;50.102;14.434;2023-07-13T04:59:59;99065.31;;;20.18;58.86
76128;BME280;64873;50.102;14.434;2023-07-13T05:02:27;99070.81;;;20.08;59.51
76128;BME280;64873;50.102;14.434;2023-07-13T05:04:53;99073.09;;;19.95;60.35
76128;BME280;64873;50.102;14.434;2023-07-13T05:07:19;99062.78;;;19.92;60.50
76128;BME280;64873;50.102;14.434;2023-07-13T05:09:44;99077.22;;;19.88;60.75
76128;BME280;64873;50.102;14.434;2023-07-13T05:12:10;99068.25;;;19.87;60.88
76128;BME280;64873;50.102;14.434;2023-07-13T05:14:36;99065.50;;;19.92;60.79
76128;BME280;64873;50.102;14.434;2023-07-13T05:17:01;99081.91;;;19.77;61.08
76128;BME280;64873;50.102;14.434;2023-07-13T05:19:27;99075.13;;;19.75;61.33
76128;BME280;64873;50.102;14.434;2023-07-13T05:21:52;99078.63;;;19.75;61.36
76128;BME280;64873;50.102;14.434;2023-07-13T05:24:18;99083.84;;;19.72;61.59
76128;BME280;64873;50.102;14.434;2023-07-13T05:26:44;99087.38;;;19.67;62.01
76128;BME280;64873;50.102;14.434;2023-07-13T05:29:09;99091.97;;;19.72;61.83
76128;BME280;64873;50.102;14.434;2023-07-13T05:31:35;99092.25;;;19.70;61.82
76128;BME280;64873;50.102;14.434;2023-07-13T05:34:00;99081.31;;;19.80;61.53
76128;BME280;64873;50.102;14.434;2023-07-13T05:36:26;99093.78;;;19.81;61.59
76128;BME280;64873;50.102;14.434;2023-07-13T05:38:51;99089.34;;;19.95;61.39
76128;BME280;64873;50.102;14.434;2023-07-13T05:41:17;99095.44;;;19.82;61.91
76128;BME280;64873;50.102;14.434;2023-07-13T05:43:42;99093.88;;;19.71;62.17
76128;BME280;64873;50.102;14.434;2023-07-13T05:46:07;99096.59;;;19.66;62.09
76128;BME280;64873;50.102;14.434;2023-07-13T05:48:33;99091.72;;;19.63;62.30
76128;BME280;64873;50.102;14.434;2023-07-13T05:50:58;99090.53;;;19.84;61.98
76128;BME280;64873;50.102;14.434;2023-07-13T05:53:24;99105.94;;;19.89;61.83
76128;BME280;64873;50.102;14.434;2023-07-13T05:55:49;99104.56;;;19.91;61.77
76128;BME280;64873;50.102;14.434;2023-07-13T05:58:18;99111.34;;;19.94;61.93
76128;BME280;64873;50.102;14.434;2023-07-13T06:00:44;99102.78;;;20.11;61.44
76128;BME280;64873;50.102;14.434;2023-07-13T06:03:10;99106.84;;;20.13;61.72
76128;BME280;64873;50.102;14.434;2023-07-13T06:05:36;99107.72;;;20.04;61.93
76128;BME280;64873;50.102;14.434;2023-07-13T06:08:03;99116.31;;;20.16;61.48
76128;BME280;64873;50.102;14.434;2023-07-13T06:10:29;99102.47;;;20.52;60.53
76128;BME280;64873;50.102;14.434;2023-07-13T06:12:54;99113.31;;;20.52;59.95
76128;BME280;64873;50.102;14.434;2023-07-13T06:15:20;99116.63;;;20.77;59.54
76128;BME280;64873;50.102;14.434;2023-07-13T06:17:45;99114.75;;;20.73;59.58
76128;BME280;64873;50.102;14.434;2023-07-13T06:20:11;99119.84;;;20.80;59.58
76128;BME280;64873;50.102;14.434;2023-07-13T06:22:37;99124.78;;;20.48;60.71
76128;BME280;64873;50.102;14.434;2023-07-13T06:25:02;99128.00;;;20.50;60.00
76128;BME280;64873;50.102;14.434;2023-07-13T06:27:28;99133.25;;;20.37;60.65
76128;BME280;64873;50.102;14.434;2023-07-13T06:29:53;99130.06;;;20.64;59.82
76128;BME280;64873;50.102;14.434;2023-07-13T06:32:19;99136.34;;;20.59;60.77
76128;BME280;64873;50.102;14.434;2023-07-13T06:34:44;99124.91;;;20.62;60.15
76128;BME280;64873;50.102;14.434;2023-07-13T06:37:10;99126.13;;;20.75;59.98
76128;BME280;64873;50.102;14.434;2023-07-13T06:39:36;99124.72;;;20.83;59.45
76128;BME280;64873;50.102;14.434;2023-07-13T06:42:01;99130.19;;;20.77;60.10
76128;BME280;64873;50.102;14.434;2023-07-13T06:44:27;99121.75;;;20.79;59.69
76128;BME280;64873;50.102;14.434;2023-07-13T06:46:53;99133.06;;;20.86;59.64
76128;BME280;64873;50.102;14.434;2023-07-13T06:49:18;99124.47;;;21.03;59.04
76128;BME280;64873;50.102;14.434;2023-07-13T06:51:44;99125.88;;;21.00;59.56
76128;BME280;64873;50.102;14.434;2023-07-13T06:54:09;99137.09;;;21.18;59.22
76128;BME280;64873;50.102;14.434;2023-07-13T06:56:34;99139.97;;;21.02;59.20
76128;BME280;64873;50.102;14.434;2023-07-13T06:59:00;99138.31;;;21.07;59.62
76128;BME280;64873;50.102;14.434;2023-07-13T07:01:25;99151.66;;;21.27;59.13
76128;BME280;64873;50.102;14.434;2023-07-13T07:03:51;99150.59;;;20.99;59.61
76128;BME280;64873;50.102;14.434;2023-07-13T07:06:19;99145.88;;;21.10;59.48
76128;BME280;64873;50.102;14.434;2023-07-13T07:08:45;99145.09;;;21.33;58.55
76128;BME280;64873;50.102;14.434;2023-07-13T07:11:17;99140.78;;;21.51;58.68
76128;BME280;64873;50.102;14.434;2023-07-13T07:13:43;99142.75;;;21.45;58.59
76128;BME280;64873;50.102;14.434;2023-07-13T07:16:08;99148.81;;;21.61;57.76
76128;BME280;64873;50.102;14.434;2023-07-13T07:18:37;99140.72;;;21.75;57.36
76128;BME280;64873;50.102;14.434;2023-07-13T07:21:03;99143.91;;;22.01;56.55
76128;BME280;64873;50.102;14.434;2023-07-13T07:23:28;99145.94;;;22.09;56.22
76128;BME280;64873;50.102;14.434;2023-07-13T07:25:54;99151.50;;;22.23;55.14
76128;BME280;64873;50.102;14.434;2023-07-13T07:28:19;99157.75;;;22.23;55.48
76128;BME280;64873;50.102;14.434;2023-07-13T07:30:45;99158.13;;;22.17;55.55
76128;BME280;64873;50.102;14.434;2023-07-13T07:33:11;99161.97;;;21.92;56.56
76128;BME280;64873;50.102;14.434;2023-07-13T07:35:37;99160.81;;;21.98;56.28
76128;BME280;64873;50.102;14.434;2023-07-13T07:38:04;99159.31;;;22.11;56.19
76128;BME280;64873;50.102;14.434;2023-07-13T07:40:30;99165.84;;;22.09;56.44
76128;BME280;64873;50.102;14.434;2023-07-13T07:42:56;99172.66;;;22.26;55.86
76128;BME280;64873;50.102;14.434;2023-07-13T07:45:21;99167.59;;;22.19;55.98
76128;BME280;64873;50.102;14.434;2023-07-13T07:47:47;99165.56;;;22.44;55.09
76128;BME280;64873;50.102;14.434;2023-07-13T07:50:13;99159.06;;;22.58;54.09
76128;BME280;64873;50.102;14.434;2023-07-13T07:52:38;99157.75;;;22.56;52.38
76128;BME280;64873;50.102;14.434;2023-07-13T07:55:05;99167.84;;;22.55;52.57
76128;BME280;64873;50.102;14.434;2023-07-13T07:57:31;99170.81;;;22.73;52.82
76128;BME280;64873;50.102;14.434;2023-07-13T07:59:57;99175.41;;;22.58;51.50
76128;BME280;64873;50.102;14.434;2023-07-13T08:02:22;99176.63;;;22.33;51.72
76128;BME280;64873;50.102;14.434;2023-07-13T08:04:47;99174.28;;;22.27;50.72
76128;BME280;64873;50.102;14.434;2023-07-13T08:07:13;99178.31;;;22.48;50.99
76128;BME280;64873;50.102;14.434;2023-07-13T08:09:38;99186.09;;;22.55;50.41
76128;BME280;64873;50.102;14.434;2023-07-13T08:12:04;99181.84;;;22.49;50.17
76128;BME280;64873;50.102;14.434;2023-07-13T08:14:30;99187.06;;;22.45;50.39
76128;BME280;64873;50.102;14.434;2023-07-13T08:16:55;99185.88;;;22.51;49.96
76128;BME280;64873;50.102;14.434;2023-07-13T08:19:21;99187.31;;;22.62;49.23
76128;BME280;64873;50.102;14.434;2023-07-13T08:21:46;99184.47;;;22.54;49.63
76128;BME280;64873;50.102;14.434;2023-07-13T08:24:13;99203.97;;;22.61;49.37
76128;BME280;64873;50.102;14.434;2023-07-13T08:26:39;99199.25;;;22.67;49.20
76128;BME280;64873;50.102;14.434;2023-07-13T08:29:05;99197.16;;;22.45;50.04
76128;BME280;64873;50.102;14.434;2023-07-13T08:31:30;99191.72;;;22.26;50.53
76128;BME280;64873;50.102;14.434;2023-07-13T08:33:55;99191.22;;;22.56;49.22
76128;BME280;64873;50.102;14.434;2023-07-13T08:36:21;99186.59;;;22.57;47.71
76128;BME280;64873;50.102;14.434;2023-07-13T08:38:46;99187.97;;;22.73;47.21
76128;BME280;64873;50.102;14.434;2023-07-13T08:41:16;99188.44;;;22.94;47.13
76128;BME280;64873;50.102;14.434;2023-07-13T08:43:46;99176.97;;;23.25;46.11
76128;BME280;64873;50.102;14.434;2023-07-13T08:48:52;99190.88;;;22.96;47.29
76128;BME280;64873;50.102;14.434;2023-07-13T08:51:29;99190.47;;;23.02;47.08
76128;BME280;64873;50.102;14.434;2023-07-13T08:54:02;99183.00;;;23.22;46.38
76128;BME280;64873;50.102;14.434;2023-07-13T08:56:29;99182.41;;;23.25;44.48
76128;BME280;64873;50.102;14.434;2023-07-13T08:58:58;99176.25;;;23.19;44.08
76128;BME280;64873;50.102;14.434;2023-07-13T09:01:37;99189.09;;;23.19;42.72
76128;BME280;64873;50.102;14.434;2023-07-13T09:04:14;99187.88;;;23.38;42.47
76128;BME280;64873;50.102;14.434;2023-07-13T09:09:40;99188.47;;;23.77;41.30
76128;BME280;64873;50.102;14.434;2023-07-13T09:12:19;99197.66;;;23.94;40.06
76128;BME280;64873;50.102;14.434;2023-07-13T09:14:53;99198.94;;;24.11;39.74
76128;BME280;64873;50.102;14.434;2023-07-13T09:17:26;99197.63;;;24.31;40.10
76128;BME280;64873;50.102;14.434;2023-07-13T09:20:05;99196.47;;;24.23;39.67
76128;BME280;64873;50.102;14.434;2023-07-13T09:22:37;99209.72;;;24.52;39.00
76128;BME280;64873;50.102;14.434;2023-07-13T09:25:29;99209.22;;;24.72;38.84
76128;BME280;64873;50.102;14.434;2023-07-13T09:27:58;99206.75;;;24.40;38.16
76128;BME280;64873;50.102;14.434;2023-07-13T09:33:13;99223.06;;;24.98;36.44
76128;BME280;64873;50.102;14.434;2023-07-13T09:35:39;99221.25;;;24.94;36.96
76128;BME280;64873;50.102;14.434;2023-07-13T09:38:18;99211.03;;;24.77;37.79
76128;BME280;64873;50.102;14.434;2023-07-13T09:41:15;99220.81;;;25.00;37.60
76128;BME280;64873;50.102;14.434;2023-07-13T09:46:34;99226.66;;;25.39;36.53
76128;BME280;64873;50.102;14.434;2023-07-13T09:48:59;99222.50;;;25.10;37.76
76128;BME280;64873;50.102;14.434;2023-07-13T09:51:25;99221.38;;;24.89;38.15
76128;BME280;64873;50.102;14.434;2023-07-13T09:53:50;99228.41;;;25.04;38.05
76128;BME280;64873;50.102;14.434;2023-07-13T09:56:24;99228.72;;;24.80;37.16
76128;BME280;64873;50.102;14.434;2023-07-13T09:58:51;99228.97;;;24.69;37.43
76128;BME280;64873;50.102;14.434;2023-07-13T10:01:31;99232.66;;;25.18;36.37
76128;BME280;64873;50.102;14.434;2023-07-13T10:03:57;99237.16;;;25.14;36.44
76128;BME280;64873;50.102;14.434;2023-07-13T10:06:23;99244.97;;;25.30;35.42
76128;BME280;64873;50.102;14.434;2023-07-13T10:08:52;99230.47;;;25.69;35.01
76128;BME280;64873;50.102;14.434;2023-07-13T10:13:52;99221.88;;;25.53;34.62
76128;BME280;64873;50.102;14.434;2023-07-13T10:16:21;99222.19;;;26.00;34.49
76128;BME280;64873;50.102;14.434;2023-07-13T10:18:49;99219.50;;;25.69;35.08
76128;BME280;64873;50.102;14.434;2023-07-13T10:21:21;99219.97;;;25.62;35.26
76128;BME280;64873;50.102;14.434;2023-07-13T10:23:50;99221.97;;;25.79;34.82
76128;BME280;64873;50.102;14.434;2023-07-13T10:26:21;99223.06;;;25.69;35.14
76128;BME280;64873;50.102;14.434;2023-07-13T10:28:52;99224.28;;;25.46;35.48
76128;BME280;64873;50.102;14.434;2023-07-13T10:31:21;99223.84;;;25.70;35.05
76128;BME280;64873;50.102;14.434;2023-07-13T10:33:47;99223.75;;;25.44;34.92
76128;BME280;64873;50.102;14.434;2023-07-13T10:36:29;99223.41;;;25.28;35.62
76128;BME280;64873;50.102;14.434;2023-07-13T10:38:57;99227.53;;;25.57;35.09
76128;BME280;64873;50.102;14.434;2023-07-13T10:41:26;99212.16;;;25.78;34.88
76128;BME280;64873;50.102;14.434;2023-07-13T10:43:55;99211.84;;;25.97;34.29
76128;BME280;64873;50.102;14.434;2023-07-13T10:46:24;99208.44;;;25.83;34.08
76128;BME280;64873;50.102;14.434;2023-07-13T10:49:01;99204.59;;;25.75;34.31
76128;BME280;64873;50.102;14.434;2023-07-13T10:51:28;99212.66;;;25.80;34.36
76128;BME280;64873;50.102;14.434;2023-07-13T10:54:19;99203.94;;;25.78;34.43
76128;BME280;64873;50.102;14.434;2023-07-13T10:56:53;99205.88;;;25.38;35.20
76128;BME280;64873;50.102;14.434;2023-07-13T10:59:32;99199.00;;;25.49;35.15
76128;BME280;64873;50.102;14.434;2023-07-13T11:04:43;99209.66;;;25.19;35.79
76128;BME280;64873;50.102;14.434;2023-07-13T11:07:19;99207.56;;;25.16;35.58
76128;BME280;64873;50.102;14.434;2023-07-13T11:09:50;99199.22;;;25.21;35.45
76128;BME280;64873;50.102;14.434;2023-07-13T11:25:31;99180.03;;;25.52;35.43
76128;BME280;64873;50.102;14.434;2023-07-13T11:30:48;99174.81;;;26.17;33.66
76128;BME280;64873;50.102;14.434;2023-07-13T11:33:22;99176.06;;;25.85;34.24
76128;BME280;64873;50.102;14.434;2023-07-13T11:38:31;99174.00;;;25.99;34.31
76128;BME280;64873;50.102;14.434;2023-07-13T11:41:02;99161.59;;;26.36;33.83
76128;BME280;64873;50.102;14.434;2023-07-13T11:43:29;99162.41;;;26.63;33.16
76128;BME280;64873;50.102;14.434;2023-07-13T11:45:54;99166.25;;;26.70;32.87
76128;BME280;64873;50.102;14.434;2023-07-13T11:48:25;99160.16;;;26.30;33.26
76128;BME280;64873;50.102;14.434;2023-07-13T11:51:00;99161.09;;;26.25;33.43
76128;BME280;64873;50.102;14.434;2023-07-13T11:53:29;99156.44;;;26.17;33.82
76128;BME280;64873;50.102;14.434;2023-07-13T11:56:00;99167.56;;;25.95;33.72
76128;BME280;64873;50.102;14.434;2023-07-13T11:58:26;99167.38;;;25.91;34.11
76128;BME280;64873;50.102;14.434;2023-07-13T12:00:55;99172.47;;;25.67;34.20
76128;BME280;64873;50.102;14.434;2023-07-13T12:03:25;99181.69;;;25.79;34.62
76128;BME280;64873;50.102;14.434;2023-07-13T12:06:05;99175.88;;;25.72;34.04
76128;BME280;64873;50.102;14.434;2023-07-13T12:08:37;99177.75;;;25.46;34.50
76128;BME280;64873;50.102;14.434;2023-07-13T12:11:13;99182.91;;;25.47;34.11
76128;BME280;64873;50.102;14.434;2023-07-13T12:13:40;99184.88;;;25.64;34.03
76128;BME280;64873;50.102;14.434;2023-07-13T12:16:35;99172.88;;;25.83;33.67
76128;BME280;64873;50.102;14.434;2023-07-13T12:19:01;99174.81;;;26.25;33.27
76128;BME280;64873;50.102;14.434;2023-07-13T12:21:38;99173.63;;;26.78;31.62
76128;BME280;64873;50.102;14.434;2023-07-13T12:24:14;99177.75;;;27.02;31.83
76128;BME280;64873;50.102;14.434;2023-07-13T12:26:39;99178.13;;;27.39;31.49
76128;BME280;64873;50.102;14.434;2023-07-13T12:29:06;99178.13;;;27.68;31.27
76128;BME280;64873;50.102;14.434;2023-07-13T12:34:11;99166.13;;;27.81;30.84
76128;BME280;64873;50.102;14.434;2023-07-13T12:36:41;99172.69;;;26.74;31.59
76128;BME280;64873;50.102;14.434;2023-07-13T12:39:16;99164.16;;;26.50;32.01
76128;BME280;64873;50.102;14.434;2023-07-13T12:41:42;99152.44;;;26.41;32.37
76128;BME280;64873;50.102;14.434;2023-07-13T12:44:11;99156.38;;;26.87;31.86
76128;BME280;64873;50.102;14.434;2023-07-13T12:46:38;99153.28;;;26.79;31.97
76128;BME280;64873;50.102;14.434;2023-07-13T12:49:06;99153.97;;;26.76;32.04
76128;BME280;64873;50.102;14.434;2023-07-13T12:51:32;99151.41;;;26.71;32.40
76128;BME280;64873;50.102;14.434;2023-07-13T12:54:13;99155.94;;;26.50;32.49
76128;BME280;64873;50.102;14.434;2023-07-13T12:56:40;99157.69;;;26.80;32.47
76128;BME280;64873;50.102;14.434;2023-07-13T12:59:06;99147.28;;;26.95;31.75
76128;BME280;64873;50.102;14.434;2023-07-13T13:01:41;99145.50;;;26.17;33.05
76128;BME280;64873;50.102;14.434;2023-07-13T13:04:09;99146.94;;;26.41;32.69
76128;BME280;64873;50.102;14.434;2023-07-13T13:06:36;99145.66;;;26.47;32.17
76128;BME280;64873;50.102;14.434;2023-07-13T13:09:03;99146.25;;;26.61;31.76
76128;BME280;64873;50.102;14.434;2023-07-13T13:11:31;99147.97;;;26.92;31.58
76128;BME280;64873;50.102;14.434;2023-07-13T13:13:56;99142.44;;;27.00;31.27
76128;BME280;64873;50.102;14.434;2023-07-13T13:16:37;99156.72;;;27.23;30.89
76128;BME280;64873;50.102;14.434;2023-07-13T13:19:14;99143.81;;;26.77;31.59
76128;BME280;64873;50.102;14.434;2023-07-13T13:21:42;99149.22;;;26.94;31.26
76128;BME280;64873;50.102;14.434;2023-07-13T13:24:14;99142.69;;;26.69;32.01
76128;BME280;64873;50.102;14.434;2023-07-13T13:26:41;99140.59;;;26.66;32.29
76128;BME280;64873;50.102;14.434;2023-07-13T13:29:15;99151.28;;;26.50;32.87
76128;BME280;64873;50.102;14.434;2023-07-13T13:31:41;99145.81;;;26.24;34.08